Historique des mesures à Cassis (13260), France
Quotidien Résumé Mars 2, 2018 Unités:  US    Métrique   Métrique/US
« Précédent (Jour)
Suivant (Jour) »
Quotidien Hebdomadaire Mensuel Annuel Période au choix
  Maximum: Minimum: Moyenne:
Température: 32 °F 43.2 °F 48.6 °F
Point de rosée: 32 °F 35.6 °F 39.6 °F
Humidité: Humidity % 55 % 68 %
Vitesse du vent: WindSpeedKMH mph 0.0 mph 10.7 mph
Rafales: WindSpeedGustKMH mph - -
Vent:- - SSW
Pression: 0 in 29.1 in -
Précipitations: 104.14 in    
Historical Graphs
 
 
Mesures pour : Mars 2, 2018
Heure Temperature Point de rosée Pression Vent Vitesse du vent Rafales Humidité Pluie (par heure) Conditions
32 °F 32 °F 0 in Calm     Humidity % 0 in SoftwareType W/m2
00:12 48.6 °F 41.9 °F 29.2 in ESE 12.2 mph 12.6 mph 78 % 0 in open2300-1.11 W/m2
01:12 48.9 °F 41.4 °F 29.2 in ESE 17.2 mph 17.2 mph 75 % 0 in open2300-1.11 W/m2
02:12 49.6 °F 42.1 °F 29.2 in SE 9.7 mph 9.7 mph 75 % 0 in open2300-1.11 W/m2
04:12 47.5 °F 42.4 °F 29.1 in ESE 11.1 mph 11.1 mph 83 % 38.1 in open2300-1.11 W/m2
05:12 47.8 °F 42.6 °F 29.1 in SE 8.7 mph 14.3 mph 82 % 12.7 in open2300-1.11 W/m2
06:12 48.7 °F 43.2 °F 29.1 in ESE 18.0 mph 18.0 mph 81 % 0 in open2300-1.11 W/m2
07:12 48.7 °F 43.2 °F 29.1 in East 5.5 mph 7.2 mph 81 % 0 in open2300-1.11 W/m2
08:12 45.1 °F 39.7 °F 29.2 in WNW 36.0 mph 66.3 mph 81 % 0 in open2300-1.11 W/m2
09:12 43.2 °F 38.3 °F 29.3 in NNE 16.6 mph 29.4 mph 83 % 25.4 in open2300-1.11 W/m2
10:12 45 °F 39.6 °F 29.3 in NW 11.6 mph 18.7 mph 81 % 12.7 in open2300-1.11 W/m2
11:12 48.7 °F 41.4 °F 29.4 in NW 4.7 mph 16.3 mph 76 % 0 in open2300-1.11 W/m2
12:12 51.4 °F 42.4 °F 29.4 in WSW 15.8 mph 15.8 mph 71 % 0 in open2300-1.11 W/m2
13:12 52.5 °F 41 °F 29.4 in WSW 30.6 mph 30.6 mph 65 % 0 in open2300-1.11 W/m2
14:12 54.3 °F 39.7 °F 29.4 in NW 14.3 mph 36.4 mph 58 % 0 in open2300-1.11 W/m2
15:12 54.7 °F 39.7 °F 29.4 in WNW 26.2 mph 27.4 mph 57 % 0 in open2300-1.11 W/m2
16:12 54.9 °F 39.4 °F 29.4 in WNW 3.5 mph 18.0 mph 56 % 0 in open2300-1.11 W/m2
17:12 54.3 °F 38.5 °F 29.4 in WSW 14.3 mph 14.3 mph 55 % 0 in open2300-1.11 W/m2
18:12 52 °F 37.6 °F 29.4 in Calm   5.0 mph 58 % 0 in open2300-1.11 W/m2
19:12 49.3 °F 37.2 °F 29.4 in Calm     63 % 0 in open2300-1.11 W/m2
20:12 47.1 °F 36.3 °F 29.4 in Calm   1.8 mph 66 % 0 in open2300-1.11 W/m2
21:12 46.8 °F 35.6 °F 29.4 in NNW 1.4 mph 1.8 mph 65 % 0 in open2300-1.11 W/m2
22:12 46.8 °F 36 °F 29.4 in Calm   2.1 mph 66 % 0 in open2300-1.11 W/m2
23:12 47.5 °F 36.7 °F 29.4 in Calm     66 % 0 in open2300-1.11 W/m2
Observations météo à CASSIS
WU-History script by Weather Underground - 1 mb